This is the latest recevied weather packets stored in our database for station/object E20ZNR-1. If no packets are shown the sender has not sent any weather packets the latest 10 day(s).
| Time | Temp. | Humidity | Pressure | Rain* | Wind** | Luminosity | Snow |
|---|---|---|---|---|---|---|---|
| 1777860317 | 35.56° C | 65% | 1008 hPa | - | - | 0 W/m² | - |
| 1777859390 | 41.11° C | 49% | 1007 hPa | - | - | 0 W/m² | - |
| 1777858465 | 43.33° C | 45% | 1007 hPa | - | - | 0 W/m² | - |
| 1777857525 | 37.78° C | 58% | 1007 hPa | - | - | 0 W/m² | - |
| 1777856568 | 37.78° C | 66% | 1007 hPa | - | - | 0 W/m² | - |
| 1777855681 | 33.89° C | 71% | 1007 hPa | - | - | 0 W/m² | - |
| 1777854755 | 36.67° C | 62% | 1007 hPa | - | - | 0 W/m² | - |
| 1777853830 | 37.22° C | 70% | 1007 hPa | - | - | 0 W/m² | - |
| 1777852906 | 34.44° C | 77% | 1007 hPa | - | - | 0 W/m² | - |
| 1777851980 | 31.67° C | 98% | 1007 hPa | - | - | 0 W/m² | - |
| 1777851055 | 27.78° C | 99% | 1006 hPa | - | - | 0 W/m² | - |
| 1777850133 | 27.22° C | 99% | 1006 hPa | - | - | 0 W/m² | - |
| 1777849204 | 26.67° C | 99% | 1006 hPa | - | - | 0 W/m² | - |
| 1777848279 | 26.67° C | 99% | 1006 hPa | - | - | 0 W/m² | - |
| 1777847354 | 27.22° C | 99% | 1005 hPa | - | - | 0 W/m² | - |
| 1777846428 | 26.67° C | 99% | 1005 hPa | - | - | 0 W/m² | - |
| 1777845502 | 27.22° C | 99% | 1005 hPa | - | - | 0 W/m² | - |
| 1777844577 | 27.22° C | 99% | 1005 hPa | - | - | 0 W/m² | - |
| 1777843651 | 27.22° C | 99% | 1005 hPa | - | - | 0 W/m² | - |
| 1777842727 | 27.22° C | 99% | 1005 hPa | - | - | 0 W/m² | - |
| 1777841802 | 27.22° C | 99% | 1005 hPa | - | - | 0 W/m² | - |
| 1777840877 | 27.22° C | 99% | 1005 hPa | - | - | 0 W/m² | - |
| 1777839953 | 27.78° C | 99% | 1005 hPa | - | - | 0 W/m² | - |
| 1777839027 | 27.78° C | 99% | 1005 hPa | - | - | 0 W/m² | - |
| 1777838102 | 27.78° C | 99% | 1005 hPa | - | - | 0 W/m² | - |
* Rain since midnight (hover to see other rain measurements)
** Current wind speed in m/s (hover to see current wind gust speed)